createdAt,value
2018-12-18T00:00:19.763Z,45.77
2018-12-18T00:02:50.014Z,46.60
2018-12-18T00:05:24.050Z,45.57
2018-12-18T00:07:51.502Z,51.43
2018-12-18T00:10:18.722Z,48.83
2018-12-18T00:12:46.072Z,53.97
2018-12-18T00:15:13.281Z,51.40
2018-12-18T00:17:40.493Z,51.33
2018-12-18T00:20:07.944Z,48.33
2018-12-18T00:22:35.148Z,47.43
2018-12-18T00:25:02.497Z,49.57
2018-12-18T00:27:29.748Z,49.20
2018-12-18T00:29:57.016Z,49.67
2018-12-18T00:32:24.243Z,53.97
2018-12-18T00:34:51.516Z,53.60
2018-12-18T00:37:18.708Z,49.23
2018-12-18T00:39:46.020Z,55.17
2018-12-18T00:42:13.352Z,51.70
2018-12-18T00:44:40.662Z,47.67
2018-12-18T00:47:07.892Z,52.23
2018-12-18T00:49:35.111Z,49.30
2018-12-18T00:52:02.313Z,50.67
2018-12-18T00:54:29.487Z,50.23
2018-12-18T00:56:56.742Z,48.37
2018-12-18T00:59:23.941Z,52.33
2018-12-18T01:01:57.113Z,48.73
2018-12-18T01:04:24.321Z,50.93
2018-12-18T01:06:51.562Z,48.20
2018-12-18T01:09:18.916Z,52.80
2018-12-18T01:11:46.558Z,49.33
2018-12-18T01:14:13.796Z,49.00
2018-12-18T01:16:41.266Z,51.13
2018-12-18T01:19:08.514Z,53.53
2018-12-18T01:21:35.761Z,48.40
2018-12-18T01:24:03.121Z,50.30
2018-12-18T01:26:30.328Z,48.67
2018-12-18T01:28:57.531Z,49.50
2018-12-18T01:31:24.794Z,47.60
2018-12-18T01:33:52.026Z,46.20
2018-12-18T01:36:19.225Z,47.20
2018-12-18T01:38:46.464Z,48.50
2018-12-18T01:41:13.689Z,44.63
2018-12-18T01:43:40.892Z,48.13
2018-12-18T01:46:08.107Z,47.87
2018-12-18T01:48:35.331Z,50.03
2018-12-18T01:51:02.548Z,46.10
2018-12-18T01:53:29.801Z,47.97
2018-12-18T01:55:57.186Z,48.77
2018-12-18T01:58:24.492Z,46.10
2018-12-18T02:00:51.795Z,47.07
2018-12-18T02:03:18.997Z,43.40
2018-12-18T02:05:46.345Z,47.30
2018-12-18T02:08:13.568Z,46.10
2018-12-18T02:10:40.868Z,50.00
2018-12-18T02:13:08.242Z,51.93
2018-12-18T02:15:35.493Z,52.03
2018-12-18T02:18:02.689Z,54.17
2018-12-18T02:20:29.911Z,56.70
2018-12-18T02:22:57.131Z,51.57
2018-12-18T02:25:24.337Z,54.57
2018-12-18T02:27:51.539Z,55.60
2018-12-18T02:30:18.819Z,56.57
2018-12-18T02:32:46.046Z,55.03
2018-12-18T02:35:13.390Z,60.40
2018-12-18T02:37:40.621Z,57.33
2018-12-18T02:40:08.047Z,60.93
2018-12-18T02:42:35.270Z,59.93
2018-12-18T02:45:02.928Z,60.67
2018-12-18T02:47:30.133Z,62.43
2018-12-18T02:49:57.421Z,61.73
2018-12-18T02:52:24.766Z,60.57
2018-12-18T02:54:51.990Z,62.17
2018-12-18T02:57:19.192Z,62.63
2018-12-18T02:59:46.667Z,69.60
2018-12-18T03:02:14.215Z,65.67
2018-12-18T03:04:41.578Z,66.10
2018-12-18T03:07:08.940Z,67.80
2018-12-18T03:09:36.172Z,72.20
2018-12-18T03:12:03.640Z,71.77
2018-12-18T03:14:31.041Z,69.07
2018-12-18T03:16:58.374Z,72.43
2018-12-18T03:19:25.588Z,80.90
2018-12-18T03:21:52.941Z,75.10
2018-12-18T03:24:20.155Z,78.33
2018-12-18T03:26:47.396Z,77.07
2018-12-18T03:29:14.752Z,75.47
2018-12-18T03:31:45.210Z,71.47
2018-12-18T03:34:12.402Z,71.87
2018-12-18T03:36:39.653Z,73.93
2018-12-18T03:39:06.840Z,73.40
2018-12-18T03:41:34.181Z,74.47
2018-12-18T03:44:01.423Z,72.97
2018-12-18T03:46:28.633Z,66.13
2018-12-18T03:48:55.856Z,63.40
2018-12-18T03:51:23.116Z,63.53
2018-12-18T03:53:50.351Z,58.97
2018-12-18T03:56:17.560Z,61.03
2018-12-18T03:58:44.826Z,64.63
2018-12-18T04:01:12.126Z,64.90
2018-12-18T04:03:39.341Z,61.90
2018-12-18T04:06:06.621Z,61.53
2018-12-18T04:08:33.841Z,59.27
2018-12-18T04:11:01.178Z,61.33
2018-12-18T04:13:28.532Z,62.63
2018-12-18T04:15:55.751Z,65.17
2018-12-18T04:18:22.975Z,60.20
2018-12-18T04:20:50.232Z,58.80
2018-12-18T04:23:17.545Z,55.47
2018-12-18T04:25:44.766Z,62.03
2018-12-18T04:28:12.002Z,61.63
2018-12-18T04:30:39.291Z,61.60
2018-12-18T04:33:06.505Z,63.60
2018-12-18T04:35:33.731Z,62.57
2018-12-18T04:38:00.958Z,60.03
2018-12-18T04:40:28.192Z,64.23
2018-12-18T04:42:55.450Z,57.57
2018-12-18T04:45:22.696Z,62.33
2018-12-18T04:47:49.900Z,57.77
2018-12-18T04:50:17.142Z,55.67
2018-12-18T04:52:44.478Z,58.43
2018-12-18T04:55:11.794Z,61.40
2018-12-18T04:57:39.184Z,60.63
2018-12-18T05:00:07.733Z,63.17
2018-12-18T05:02:34.928Z,58.13
2018-12-18T05:05:02.280Z,56.67
2018-12-18T05:07:29.523Z,51.57
2018-12-18T05:09:56.722Z,51.97
2018-12-18T05:12:23.949Z,53.77
2018-12-18T05:14:51.278Z,53.13
2018-12-18T05:17:18.505Z,49.30
2018-12-18T05:19:45.788Z,57.07
2018-12-18T05:22:13.118Z,50.37
2018-12-18T05:24:40.332Z,52.87
2018-12-18T05:27:07.573Z,51.57
2018-12-18T05:29:34.761Z,53.80
2018-12-18T05:32:01.953Z,55.93
2018-12-18T05:34:29.181Z,52.57
2018-12-18T05:36:56.397Z,53.93
2018-12-18T05:39:23.604Z,49.93
2018-12-18T05:41:50.854Z,52.33
2018-12-18T05:44:18.076Z,50.20
2018-12-18T05:46:45.289Z,54.37
2018-12-18T05:49:12.645Z,54.17
2018-12-18T05:51:39.849Z,54.73
2018-12-18T05:54:07.066Z,52.13
2018-12-18T05:56:34.309Z,50.73
2018-12-18T05:59:01.674Z,53.13
2018-12-18T06:01:28.890Z,47.37
2018-12-18T06:03:56.165Z,53.03
2018-12-18T06:06:23.381Z,48.87
2018-12-18T06:08:50.581Z,51.50
2018-12-18T06:11:17.821Z,49.33
2018-12-18T06:13:45.025Z,45.47
2018-12-18T06:16:12.245Z,48.17
2018-12-18T06:18:39.491Z,49.20
2018-12-18T06:21:06.724Z,51.33
2018-12-18T06:23:33.981Z,52.13
2018-12-18T06:26:01.216Z,49.83
2018-12-18T06:28:28.420Z,50.43
2018-12-18T06:30:55.635Z,49.43
2018-12-18T06:33:22.898Z,50.83
2018-12-18T06:35:50.147Z,53.30
2018-12-18T06:38:17.499Z,59.57
2018-12-18T06:40:44.828Z,53.83
2018-12-18T06:43:12.136Z,54.93
2018-12-18T06:45:39.329Z,56.90
2018-12-18T06:48:06.581Z,57.73
2018-12-18T06:50:33.825Z,58.43
2018-12-18T06:53:01.037Z,63.37
2018-12-18T06:55:28.322Z,58.07
2018-12-18T06:57:55.544Z,63.83
2018-12-18T07:00:22.739Z,63.23
2018-12-18T07:02:49.966Z,67.57
2018-12-18T07:05:17.244Z,64.27
2018-12-18T07:07:44.953Z,59.63
2018-12-18T07:10:12.309Z,66.63
2018-12-18T07:12:39.534Z,70.90
2018-12-18T07:15:06.784Z,74.73
2018-12-18T07:17:34.025Z,70.00
2018-12-18T07:20:01.281Z,71.13
2018-12-18T07:22:28.485Z,70.33
2018-12-18T07:24:55.764Z,64.93
2018-12-18T07:27:22.956Z,75.60
2018-12-18T07:29:50.325Z,71.57
2018-12-18T07:32:17.574Z,72.20
2018-12-18T07:34:44.824Z,77.03
2018-12-18T07:37:12.185Z,72.70
2018-12-18T07:39:39.455Z,69.33
2018-12-18T07:42:06.787Z,80.63
2018-12-18T07:44:34.202Z,74.70
2018-12-18T07:47:01.553Z,75.40
2018-12-18T07:49:28.749Z,78.83
2018-12-18T07:51:55.950Z,80.57
2018-12-18T07:54:23.213Z,77.20
2018-12-18T07:56:50.429Z,74.27
2018-12-18T07:59:17.643Z,81.43
2018-12-18T08:01:45.184Z,74.00
2018-12-18T08:04:12.380Z,75.77
2018-12-18T08:06:39.593Z,76.50
2018-12-18T08:09:07.329Z,78.27
2018-12-18T08:11:34.549Z,78.10
2018-12-18T08:14:01.848Z,74.73
2018-12-18T08:16:29.119Z,73.90
2018-12-18T08:18:56.325Z,66.20
2018-12-18T08:21:23.689Z,69.97
2018-12-18T08:23:50.973Z,64.67
2018-12-18T08:26:18.346Z,69.00
2018-12-18T08:28:45.524Z,73.07
2018-12-18T08:31:12.793Z,69.07
2018-12-18T08:33:40.097Z,73.13
2018-12-18T08:36:07.304Z,64.83
2018-12-18T08:38:34.736Z,52.80
2018-12-18T08:41:01.944Z,59.77
2018-12-18T08:43:29.145Z,58.13
2018-12-18T08:45:56.407Z,53.63
2018-12-18T08:48:23.657Z,57.07
2018-12-18T08:50:50.907Z,60.37
2018-12-18T08:53:18.133Z,50.10
2018-12-18T08:55:45.337Z,50.43
2018-12-18T08:58:12.557Z,51.23
2018-12-18T09:00:39.792Z,50.80
2018-12-18T09:03:07.005Z,49.23
2018-12-18T09:05:34.213Z,49.87
2018-12-18T09:08:01.477Z,56.80
2018-12-18T09:10:28.678Z,51.47
2018-12-18T09:12:55.885Z,48.27
2018-12-18T09:15:29.049Z,55.33
2018-12-18T09:17:56.288Z,47.93
2018-12-18T09:20:23.537Z,54.63
2018-12-18T09:22:50.977Z,54.13
2018-12-18T09:25:18.206Z,52.07
2018-12-18T09:27:45.426Z,55.47
2018-12-18T09:30:12.703Z,53.50
2018-12-18T09:32:39.909Z,50.63
2018-12-18T09:35:07.274Z,52.23
2018-12-18T09:37:34.638Z,49.07
2018-12-18T09:40:01.838Z,57.40
2018-12-18T09:42:34.890Z,48.87
2018-12-18T09:45:02.308Z,53.13
2018-12-18T09:47:29.528Z,54.90
2018-12-18T09:49:56.800Z,56.03
2018-12-18T09:52:24.112Z,52.50
2018-12-18T09:54:51.331Z,53.13
2018-12-18T09:57:24.429Z,57.47
2018-12-18T09:59:51.726Z,49.23
2018-12-18T10:02:18.934Z,53.23
2018-12-18T10:04:46.171Z,57.70
2018-12-18T10:07:13.404Z,49.07
2018-12-18T10:09:40.593Z,58.83
2018-12-18T10:12:07.841Z,53.73
2018-12-18T10:14:35.205Z,54.40
2018-12-18T10:17:02.474Z,57.47
2018-12-18T10:19:29.709Z,51.03
2018-12-18T10:21:56.882Z,52.27
2018-12-18T10:24:24.092Z,55.23
2018-12-18T10:26:51.377Z,57.50
2018-12-18T10:29:18.565Z,51.43
2018-12-18T10:31:45.760Z,54.33
2018-12-18T10:34:13.110Z,57.03
2018-12-18T10:36:40.310Z,53.50
2018-12-18T10:39:07.617Z,54.83
2018-12-18T10:41:34.985Z,51.43
2018-12-18T10:44:02.372Z,57.37
2018-12-18T10:46:29.589Z,52.80
2018-12-18T10:48:56.792Z,59.33
2018-12-18T10:51:24.085Z,52.83
2018-12-18T10:53:51.313Z,57.73
2018-12-18T10:56:18.561Z,56.40
2018-12-18T10:58:45.803Z,58.57
2018-12-18T11:01:13.364Z,51.93
2018-12-18T11:03:40.627Z,55.03
2018-12-18T11:06:10.007Z,53.53
2018-12-18T11:08:37.237Z,51.10
2018-12-18T11:11:04.675Z,48.37
2018-12-18T11:13:31.877Z,48.50
2018-12-18T11:15:59.190Z,54.23
2018-12-18T11:18:26.435Z,51.90
2018-12-18T11:20:53.630Z,50.33
2018-12-18T11:23:20.858Z,47.77
2018-12-18T11:25:48.101Z,47.67
2018-12-18T11:28:15.444Z,48.83
2018-12-18T11:30:42.633Z,48.90
2018-12-18T11:33:09.892Z,57.83
2018-12-18T11:35:37.149Z,50.47
2018-12-18T11:38:04.343Z,46.60
2018-12-18T11:40:31.549Z,50.03
2018-12-18T11:42:58.757Z,42.53
2018-12-18T11:45:26.048Z,44.90
2018-12-18T11:47:53.327Z,45.67
2018-12-18T11:50:20.551Z,46.13
2018-12-18T11:52:47.749Z,40.43
2018-12-18T11:55:15.017Z,49.37
2018-12-18T11:57:42.340Z,48.40
2018-12-18T12:00:12.112Z,50.70
2018-12-18T12:02:42.792Z,43.47
2018-12-18T12:05:08.737Z,42.67
2018-12-18T12:07:35.951Z,45.53
2018-12-18T12:10:04.173Z,40.07
2018-12-18T12:12:31.500Z,40.70
2018-12-18T12:14:58.844Z,40.07
2018-12-18T12:17:26.504Z,45.00
2018-12-18T12:19:53.708Z,37.93
2018-12-18T12:22:20.943Z,38.40
2018-12-18T12:24:48.149Z,37.97
2018-12-18T12:27:21.284Z,40.77
2018-12-18T12:29:48.530Z,40.63
2018-12-18T12:32:15.781Z,41.23
2018-12-18T12:34:43.030Z,39.67
2018-12-18T12:37:10.276Z,41.00
2018-12-18T12:39:37.488Z,38.57
2018-12-18T12:42:04.726Z,37.73
2018-12-18T12:44:32.092Z,37.70
2018-12-18T12:46:59.310Z,34.43
2018-12-18T12:49:32.373Z,34.10
2018-12-18T12:51:59.582Z,36.37
2018-12-18T12:54:26.798Z,32.77
2018-12-18T12:56:54.356Z,34.33
2018-12-18T12:59:21.596Z,33.20
2018-12-18T13:01:48.822Z,32.87
2018-12-18T13:04:16.118Z,31.70
2018-12-18T13:06:43.353Z,33.23
2018-12-18T13:09:10.789Z,33.63
2018-12-18T13:11:38.056Z,29.00
2018-12-18T13:14:05.363Z,29.50
2018-12-18T13:16:32.592Z,29.80
2018-12-18T13:18:59.826Z,25.77
2018-12-18T13:21:27.030Z,27.20
2018-12-18T13:23:54.479Z,25.43
2018-12-18T13:26:21.869Z,27.20
2018-12-18T13:28:49.108Z,25.90
2018-12-18T13:31:16.334Z,22.00
2018-12-18T13:33:43.585Z,26.67
2018-12-18T13:36:10.935Z,27.03
2018-12-18T13:38:38.308Z,28.43
2018-12-18T13:41:05.544Z,23.53
2018-12-18T13:43:32.770Z,26.53
2018-12-18T13:45:59.986Z,25.47
2018-12-18T13:48:27.236Z,24.80
2018-12-18T13:50:54.481Z,28.17
2018-12-18T13:53:21.793Z,27.83
2018-12-18T13:55:49.029Z,30.23
2018-12-18T13:58:16.360Z,29.67
2018-12-18T14:00:43.687Z,25.87
2018-12-18T14:03:10.913Z,30.10
2018-12-18T14:05:38.099Z,25.03
2018-12-18T14:08:05.283Z,27.60
2018-12-18T14:10:32.689Z,28.80
2018-12-18T14:12:59.893Z,25.23
2018-12-18T14:15:27.221Z,28.70
2018-12-18T14:17:54.703Z,25.33
2018-12-18T14:20:22.032Z,30.47
2018-12-18T14:22:49.250Z,31.53
2018-12-18T14:25:16.521Z,31.97
2018-12-18T14:27:43.724Z,36.33
2018-12-18T14:30:11.164Z,29.60
2018-12-18T14:32:38.563Z,32.30
2018-12-18T14:35:05.884Z,36.83
2018-12-18T14:37:33.087Z,37.57
2018-12-18T14:40:00.328Z,37.17
2018-12-18T14:42:27.521Z,39.70
2018-12-18T14:44:54.716Z,43.30
2018-12-18T14:47:22.128Z,42.33
2018-12-18T14:49:49.480Z,44.90
2018-12-18T14:52:16.694Z,41.80
2018-12-18T14:54:44.025Z,44.90
2018-12-18T14:57:11.201Z,42.77
2018-12-18T14:59:38.625Z,42.13
2018-12-18T15:02:06.067Z,46.07
2018-12-18T15:04:33.263Z,41.20
2018-12-18T15:07:03.073Z,41.40
2018-12-18T15:09:29.715Z,39.03
2018-12-18T15:11:57.049Z,41.00
2018-12-18T15:14:24.257Z,41.13
2018-12-18T15:16:51.488Z,40.23
2018-12-18T15:19:18.705Z,42.97
2018-12-18T15:21:45.924Z,39.13
2018-12-18T15:24:13.169Z,45.77
2018-12-18T15:26:40.495Z,39.53
2018-12-18T15:29:07.717Z,43.07
2018-12-18T15:31:35.000Z,38.93
2018-12-18T15:34:02.271Z,42.40
2018-12-18T15:36:29.493Z,40.37
2018-12-18T15:38:56.972Z,38.37
2018-12-18T15:41:24.156Z,44.17
2018-12-18T15:43:51.373Z,43.00
2018-12-18T15:46:18.594Z,43.13
2018-12-18T15:48:45.798Z,44.07
2018-12-18T15:51:12.998Z,48.80
2018-12-18T15:53:40.248Z,50.97
2018-12-18T15:56:07.437Z,47.00
2018-12-18T15:58:34.651Z,46.90
2018-12-18T16:01:02.005Z,45.57
2018-12-18T16:03:29.226Z,44.83
2018-12-18T16:05:56.405Z,47.10
2018-12-18T16:08:23.679Z,49.43
2018-12-18T16:10:50.924Z,47.80
2018-12-18T16:13:18.137Z,45.47
2018-12-18T16:15:45.345Z,47.00
2018-12-18T16:18:12.553Z,44.57
2018-12-18T16:20:39.761Z,44.30
2018-12-18T16:23:07.070Z,40.37
2018-12-18T16:25:34.393Z,41.03
2018-12-18T16:28:01.637Z,38.97
2018-12-18T16:30:28.889Z,42.90
2018-12-18T16:32:56.106Z,37.70
2018-12-18T16:35:23.309Z,35.77
2018-12-18T16:37:50.564Z,40.40
2018-12-18T16:40:17.803Z,37.43
2018-12-18T16:42:45.018Z,38.27
2018-12-18T16:45:12.379Z,37.70
2018-12-18T16:47:39.568Z,35.93
2018-12-18T16:50:06.869Z,33.90
2018-12-18T16:52:34.104Z,32.50
2018-12-18T16:55:01.461Z,31.47
2018-12-18T16:57:28.791Z,32.13
2018-12-18T16:59:56.036Z,32.20
2018-12-18T17:02:23.529Z,33.13
2018-12-18T17:04:50.872Z,33.43
2018-12-18T17:07:18.128Z,38.43
2018-12-18T17:09:45.329Z,35.63
2018-12-18T17:12:12.548Z,34.13
2018-12-18T17:14:39.789Z,31.70
2018-12-18T17:17:07.033Z,32.80
2018-12-18T17:19:34.241Z,34.20
2018-12-18T17:22:01.467Z,31.67
2018-12-18T17:24:28.719Z,34.37
2018-12-18T17:26:55.926Z,33.87
2018-12-18T17:29:23.374Z,36.60
2018-12-18T17:31:50.577Z,33.90
2018-12-18T17:34:17.874Z,30.53
2018-12-18T17:36:45.125Z,37.33
2018-12-18T17:39:12.344Z,31.33
2018-12-18T17:41:39.565Z,29.60
2018-12-18T17:44:06.801Z,30.20
2018-12-18T17:46:34.018Z,26.73
2018-12-18T17:49:01.212Z,25.33
2018-12-18T17:51:28.444Z,30.83
2018-12-18T17:53:55.675Z,21.73
2018-12-18T17:56:23.027Z,24.40
2018-12-18T17:58:50.293Z,26.60
2018-12-18T18:01:17.745Z,24.30
2018-12-18T18:03:44.969Z,23.37
2018-12-18T18:06:12.246Z,23.47
2018-12-18T18:08:39.474Z,27.13
2018-12-18T18:11:06.713Z,24.50
2018-12-18T18:13:33.977Z,22.90
2018-12-18T18:16:01.296Z,25.70
2018-12-18T18:18:28.478Z,25.13
2018-12-18T18:20:55.735Z,28.23
2018-12-18T18:23:22.968Z,26.07
2018-12-18T18:25:51.049Z,27.83
2018-12-18T18:28:18.297Z,27.13
2018-12-18T18:30:45.649Z,30.07
2018-12-18T18:33:12.918Z,26.67
2018-12-18T18:35:40.234Z,31.63
2018-12-18T18:38:07.545Z,25.50
2018-12-18T18:40:34.758Z,29.17
2018-12-18T18:43:01.969Z,29.60
2018-12-18T18:45:29.181Z,29.10
2018-12-18T18:47:56.392Z,30.17
2018-12-18T18:50:23.628Z,33.37
2018-12-18T18:52:50.853Z,34.40
2018-12-18T18:55:19.107Z,34.87
2018-12-18T18:57:46.345Z,35.73
2018-12-18T19:00:13.896Z,33.00
2018-12-18T19:02:41.122Z,34.93
2018-12-18T19:05:08.376Z,36.77
2018-12-18T19:07:35.597Z,37.60
2018-12-18T19:10:04.069Z,35.47
2018-12-18T19:12:31.328Z,36.10
2018-12-18T19:14:58.549Z,35.93
2018-12-18T19:17:25.749Z,42.53
2018-12-18T19:19:53.224Z,40.43
2018-12-18T19:22:20.509Z,40.10
2018-12-18T19:24:47.741Z,42.87
2018-12-18T19:27:15.088Z,52.60
2018-12-18T19:29:42.306Z,45.97
2018-12-18T19:32:09.508Z,51.50
2018-12-18T19:34:36.725Z,47.27
2018-12-18T19:37:04.017Z,50.27
2018-12-18T19:39:31.407Z,47.63
2018-12-18T19:41:58.741Z,56.03
2018-12-18T19:44:25.962Z,59.50
2018-12-18T19:46:53.301Z,49.77
2018-12-18T19:49:20.638Z,57.37
2018-12-18T19:51:47.861Z,63.60
2018-12-18T19:54:15.172Z,63.00
2018-12-18T19:56:42.498Z,61.37
2018-12-18T19:59:10.914Z,74.67
2018-12-18T20:01:38.335Z,67.33
2018-12-18T20:04:05.589Z,70.87
2018-12-18T20:06:32.788Z,61.60
2018-12-18T20:09:00.080Z,71.70
2018-12-18T20:11:27.325Z,66.77
2018-12-18T20:13:54.587Z,72.13
2018-12-18T20:16:21.810Z,68.43
2018-12-18T20:18:49.835Z,76.53
2018-12-18T20:21:17.034Z,79.10
2018-12-18T20:23:44.267Z,79.53
2018-12-18T20:26:11.651Z,87.37
2018-12-18T20:28:38.842Z,83.03
2018-12-18T20:31:06.191Z,80.30
2018-12-18T20:33:33.441Z,73.80
2018-12-18T20:36:00.694Z,76.13
2018-12-18T20:38:27.921Z,81.73
2018-12-18T20:40:55.174Z,67.70
2018-12-18T20:43:22.404Z,70.77
2018-12-18T20:45:50.123Z,71.73
2018-12-18T20:48:17.371Z,72.70
2018-12-18T20:50:44.620Z,76.97
2018-12-18T20:53:11.945Z,80.23
2018-12-18T20:55:39.208Z,87.07
2018-12-18T20:58:06.393Z,92.67
2018-12-18T21:00:33.695Z,90.50
2018-12-18T21:03:00.964Z,94.23
2018-12-18T21:05:28.158Z,100.73
2018-12-18T21:07:55.718Z,91.77
2018-12-18T21:10:23.068Z,116.23
2018-12-18T21:12:50.292Z,114.27
2018-12-18T21:15:17.528Z,118.23
2018-12-18T21:17:44.777Z,123.97
2018-12-18T21:20:12.003Z,131.20
2018-12-18T21:22:39.205Z,145.80
2018-12-18T21:25:07.061Z,150.77
2018-12-18T21:27:34.261Z,150.63
2018-12-18T21:30:01.500Z,153.53
2018-12-18T21:32:28.751Z,157.33
2018-12-18T21:34:55.938Z,166.13
2018-12-18T21:37:23.156Z,179.07
2018-12-18T21:39:50.419Z,185.43
2018-12-18T21:42:17.773Z,191.73
2018-12-18T21:44:45.113Z,196.93
2018-12-18T21:47:12.348Z,206.53
2018-12-18T21:49:39.680Z,230.70
2018-12-18T21:52:06.972Z,223.20
2018-12-18T21:54:34.209Z,212.87
2018-12-18T21:57:01.457Z,242.63
2018-12-18T21:59:28.660Z,260.40
2018-12-18T22:01:55.936Z,233.90
2018-12-18T22:04:23.250Z,267.93
2018-12-18T22:06:50.477Z,282.97
2018-12-18T22:09:17.758Z,289.70
2018-12-18T22:11:44.952Z,311.80
2018-12-18T22:14:12.162Z,277.10
2018-12-18T22:16:39.427Z,279.67
2018-12-18T22:19:06.625Z,308.93
2018-12-18T22:21:33.840Z,314.57
2018-12-18T22:24:01.095Z,333.90
2018-12-18T22:26:28.317Z,359.03
2018-12-18T22:28:55.503Z,370.07
2018-12-18T22:31:22.786Z,370.13
2018-12-18T22:33:50.022Z,347.60
2018-12-18T22:36:17.241Z,369.57
2018-12-18T22:38:44.479Z,376.97
2018-12-18T22:41:11.677Z,357.97
2018-12-18T22:43:38.865Z,365.33
2018-12-18T22:46:06.111Z,387.90
2018-12-18T22:48:33.282Z,390.63
2018-12-18T22:51:01.964Z,407.30
2018-12-18T22:53:29.353Z,450.37
2018-12-18T22:55:56.564Z,420.30
2018-12-18T22:58:23.877Z,426.60
2018-12-18T23:00:55.974Z,438.80
2018-12-18T23:03:23.660Z,456.93
2018-12-18T23:05:50.949Z,480.83
2018-12-18T23:08:18.262Z,439.40
2018-12-18T23:10:45.516Z,485.00
2018-12-18T23:13:18.409Z,410.33
2018-12-18T23:15:47.393Z,388.73
2018-12-18T23:18:14.647Z,413.90
2018-12-18T23:20:41.985Z,348.43
2018-12-18T23:23:09.205Z,436.73
2018-12-18T23:25:36.515Z,435.97
2018-12-18T23:28:03.774Z,399.37
2018-12-18T23:30:31.031Z,395.17
2018-12-18T23:32:58.260Z,363.83
2018-12-18T23:35:25.550Z,375.23
2018-12-18T23:37:52.777Z,338.57
2018-12-18T23:40:19.993Z,372.70
2018-12-18T23:42:47.376Z,373.13
2018-12-18T23:45:14.581Z,366.43
2018-12-18T23:47:41.766Z,378.07
2018-12-18T23:50:08.997Z,377.87
2018-12-18T23:52:36.272Z,381.03
2018-12-18T23:55:04.011Z,365.60
2018-12-18T23:57:31.294Z,305.90
2018-12-18T23:59:58.526Z,307.47
